sensor_id;sensor_type;location;lat;lon;timestamp;P1;durP1;ratioP1;P2;durP2;ratioP2
10827;SDS011;5467;59.334;13.512;2022-09-09T00:00:46;0.60;;;0.60;;
10827;SDS011;5467;59.334;13.512;2022-09-09T00:03:17;0.60;;;0.60;;
10827;SDS011;5467;59.334;13.512;2022-09-09T00:05:48;0.43;;;0.43;;
10827;SDS011;5467;59.334;13.512;2022-09-09T00:08:22;0.50;;;0.50;;
10827;SDS011;5467;59.334;13.512;2022-09-09T00:10:57;0.50;;;0.50;;
10827;SDS011;5467;59.334;13.512;2022-09-09T00:13:28;0.50;;;0.50;;
10827;SDS011;5467;59.334;13.512;2022-09-09T00:16:03;0.40;;;0.40;;
10827;SDS011;5467;59.334;13.512;2022-09-09T00:18:39;0.50;;;0.50;;
10827;SDS011;5467;59.334;13.512;2022-09-09T00:21:13;0.40;;;0.40;;
10827;SDS011;5467;59.334;13.512;2022-09-09T00:23:43;0.50;;;0.50;;
10827;SDS011;5467;59.334;13.512;2022-09-09T00:26:16;0.50;;;0.50;;
10827;SDS011;5467;59.334;13.512;2022-09-09T00:28:49;0.40;;;0.40;;
10827;SDS011;5467;59.334;13.512;2022-09-09T00:31:23;0.40;;;0.40;;
10827;SDS011;5467;59.334;13.512;2022-09-09T00:33:53;0.50;;;0.50;;
10827;SDS011;5467;59.334;13.512;2022-09-09T00:36:21;0.50;;;0.50;;
10827;SDS011;5467;59.334;13.512;2022-09-09T00:38:55;0.40;;;0.40;;
10827;SDS011;5467;59.334;13.512;2022-09-09T00:41:26;0.40;;;0.40;;
10827;SDS011;5467;59.334;13.512;2022-09-09T00:44:03;0.57;;;0.57;;
10827;SDS011;5467;59.334;13.512;2022-09-09T00:46:53;0.40;;;0.40;;
10827;SDS011;5467;59.334;13.512;2022-09-09T00:49:30;0.40;;;0.40;;
10827;SDS011;5467;59.334;13.512;2022-09-09T00:52:08;0.50;;;0.50;;
10827;SDS011;5467;59.334;13.512;2022-09-09T00:54:48;0.40;;;0.40;;
10827;SDS011;5467;59.334;13.512;2022-09-09T00:57:23;0.37;;;0.37;;
10827;SDS011;5467;59.334;13.512;2022-09-09T00:59:56;0.40;;;0.40;;
10827;SDS011;5467;59.334;13.512;2022-09-09T01:02:33;0.40;;;0.40;;
10827;SDS011;5467;59.334;13.512;2022-09-09T01:05:07;0.40;;;0.40;;
10827;SDS011;5467;59.334;13.512;2022-09-09T01:07:39;0.30;;;0.30;;
10827;SDS011;5467;59.334;13.512;2022-09-09T01:10:13;0.40;;;0.40;;
10827;SDS011;5467;59.334;13.512;2022-09-09T01:12:50;0.50;;;0.50;;
10827;SDS011;5467;59.334;13.512;2022-09-09T01:15:21;0.30;;;0.30;;
10827;SDS011;5467;59.334;13.512;2022-09-09T01:17:56;0.30;;;0.30;;
10827;SDS011;5467;59.334;13.512;2022-09-09T01:20:29;0.30;;;0.30;;
10827;SDS011;5467;59.334;13.512;2022-09-09T01:28:48;0.50;;;0.50;;
10827;SDS011;5467;59.334;13.512;2022-09-09T01:31:18;0.40;;;0.40;;
10827;SDS011;5467;59.334;13.512;2022-09-09T01:33:48;0.37;;;0.37;;
10827;SDS011;5467;59.334;13.512;2022-09-09T01:36:18;0.40;;;0.40;;
10827;SDS011;5467;59.334;13.512;2022-09-09T01:38:52;0.40;;;0.40;;
10827;SDS011;5467;59.334;13.512;2022-09-09T01:41:21;0.30;;;0.30;;
10827;SDS011;5467;59.334;13.512;2022-09-09T01:43:48;0.40;;;0.40;;
10827;SDS011;5467;59.334;13.512;2022-09-09T01:46:17;0.30;;;0.30;;
10827;SDS011;5467;59.334;13.512;2022-09-09T01:48:45;0.40;;;0.40;;
10827;SDS011;5467;59.334;13.512;2022-09-09T01:51:12;0.40;;;0.40;;
10827;SDS011;5467;59.334;13.512;2022-09-09T01:53:39;0.40;;;0.40;;
10827;SDS011;5467;59.334;13.512;2022-09-09T01:56:12;0.40;;;0.40;;
10827;SDS011;5467;59.334;13.512;2022-09-09T01:58:52;0.40;;;0.40;;
10827;SDS011;5467;59.334;13.512;2022-09-09T02:01:40;0.40;;;0.40;;
10827;SDS011;5467;59.334;13.512;2022-09-09T02:04:22;0.40;;;0.40;;
10827;SDS011;5467;59.334;13.512;2022-09-09T02:06:57;0.30;;;0.30;;
10827;SDS011;5467;59.334;13.512;2022-09-09T02:09:26;0.40;;;0.40;;
10827;SDS011;5467;59.334;13.512;2022-09-09T02:11:57;0.40;;;0.40;;
10827;SDS011;5467;59.334;13.512;2022-09-09T02:14:30;0.30;;;0.30;;
10827;SDS011;5467;59.334;13.512;2022-09-09T02:17:03;0.37;;;0.37;;
10827;SDS011;5467;59.334;13.512;2022-09-09T02:19:36;0.40;;;0.40;;
10827;SDS011;5467;59.334;13.512;2022-09-09T02:22:05;0.30;;;0.30;;
10827;SDS011;5467;59.334;13.512;2022-09-09T02:24:33;0.30;;;0.30;;
10827;SDS011;5467;59.334;13.512;2022-09-09T02:27:02;0.30;;;0.30;;
10827;SDS011;5467;59.334;13.512;2022-09-09T02:29:36;0.40;;;0.40;;
10827;SDS011;5467;59.334;13.512;2022-09-09T02:32:06;0.40;;;0.40;;
10827;SDS011;5467;59.334;13.512;2022-09-09T02:34:38;0.40;;;0.40;;
10827;SDS011;5467;59.334;13.512;2022-09-09T02:37:08;0.33;;;0.33;;
10827;SDS011;5467;59.334;13.512;2022-09-09T02:39:37;0.40;;;0.40;;
10827;SDS011;5467;59.334;13.512;2022-09-09T02:42:04;0.50;;;0.50;;
10827;SDS011;5467;59.334;13.512;2022-09-09T02:44:34;0.40;;;0.40;;
10827;SDS011;5467;59.334;13.512;2022-09-09T02:47:08;0.40;;;0.40;;
10827;SDS011;5467;59.334;13.512;2022-09-09T02:49:48;0.40;;;0.40;;
10827;SDS011;5467;59.334;13.512;2022-09-09T02:52:25;0.33;;;0.33;;
10827;SDS011;5467;59.334;13.512;2022-09-09T02:54:57;0.30;;;0.30;;
10827;SDS011;5467;59.334;13.512;2022-09-09T02:57:31;0.47;;;0.47;;
10827;SDS011;5467;59.334;13.512;2022-09-09T03:00:02;0.40;;;0.40;;
10827;SDS011;5467;59.334;13.512;2022-09-09T03:02:30;0.40;;;0.40;;
10827;SDS011;5467;59.334;13.512;2022-09-09T03:04:57;0.40;;;0.40;;
10827;SDS011;5467;59.334;13.512;2022-09-09T03:07:24;0.50;;;0.50;;
10827;SDS011;5467;59.334;13.512;2022-09-09T03:09:52;0.40;;;0.40;;
10827;SDS011;5467;59.334;13.512;2022-09-09T03:12:20;0.50;;;0.50;;
10827;SDS011;5467;59.334;13.512;2022-09-09T03:14:46;0.40;;;0.40;;
10827;SDS011;5467;59.334;13.512;2022-09-09T03:17:15;0.50;;;0.50;;
10827;SDS011;5467;59.334;13.512;2022-09-09T03:19:42;0.60;;;0.60;;
10827;SDS011;5467;59.334;13.512;2022-09-09T03:22:09;0.40;;;0.40;;
10827;SDS011;5467;59.334;13.512;2022-09-09T03:24:38;0.47;;;0.47;;
10827;SDS011;5467;59.334;13.512;2022-09-09T03:27:05;0.50;;;0.50;;
10827;SDS011;5467;59.334;13.512;2022-09-09T03:29:32;0.50;;;0.50;;
10827;SDS011;5467;59.334;13.512;2022-09-09T03:31:59;0.40;;;0.40;;
10827;SDS011;5467;59.334;13.512;2022-09-09T03:34:27;0.50;;;0.50;;
10827;SDS011;5467;59.334;13.512;2022-09-09T03:36:54;0.40;;;0.40;;
10827;SDS011;5467;59.334;13.512;2022-09-09T03:39:21;0.50;;;0.50;;
10827;SDS011;5467;59.334;13.512;2022-09-09T03:41:48;0.43;;;0.43;;
10827;SDS011;5467;59.334;13.512;2022-09-09T03:44:15;0.50;;;0.50;;
10827;SDS011;5467;59.334;13.512;2022-09-09T03:46:42;0.50;;;0.50;;
10827;SDS011;5467;59.334;13.512;2022-09-09T03:49:09;0.40;;;0.40;;
10827;SDS011;5467;59.334;13.512;2022-09-09T03:51:37;0.50;;;0.50;;
10827;SDS011;5467;59.334;13.512;2022-09-09T03:54:05;0.50;;;0.50;;
10827;SDS011;5467;59.334;13.512;2022-09-09T03:56:33;0.50;;;0.50;;
10827;SDS011;5467;59.334;13.512;2022-09-09T03:59:00;0.50;;;0.50;;
10827;SDS011;5467;59.334;13.512;2022-09-09T04:01:27;0.50;;;0.50;;
10827;SDS011;5467;59.334;13.512;2022-09-09T04:03:55;0.40;;;0.40;;
10827;SDS011;5467;59.334;13.512;2022-09-09T04:06:23;0.50;;;0.50;;
10827;SDS011;5467;59.334;13.512;2022-09-09T04:08:52;0.40;;;0.40;;
10827;SDS011;5467;59.334;13.512;2022-09-09T04:11:20;0.40;;;0.40;;
10827;SDS011;5467;59.334;13.512;2022-09-09T04:13:47;0.40;;;0.40;;
10827;SDS011;5467;59.334;13.512;2022-09-09T04:16:14;0.40;;;0.40;;
10827;SDS011;5467;59.334;13.512;2022-09-09T04:18:41;0.43;;;0.43;;
10827;SDS011;5467;59.334;13.512;2022-09-09T04:21:09;0.40;;;0.40;;
10827;SDS011;5467;59.334;13.512;2022-09-09T04:23:37;0.40;;;0.40;;
10827;SDS011;5467;59.334;13.512;2022-09-09T04:26:06;0.40;;;0.40;;
10827;SDS011;5467;59.334;13.512;2022-09-09T04:28:34;0.40;;;0.40;;
10827;SDS011;5467;59.334;13.512;2022-09-09T04:31:05;0.40;;;0.40;;
10827;SDS011;5467;59.334;13.512;2022-09-09T04:33:34;0.50;;;0.50;;
10827;SDS011;5467;59.334;13.512;2022-09-09T04:36:01;0.57;;;0.57;;
10827;SDS011;5467;59.334;13.512;2022-09-09T04:38:28;0.50;;;0.50;;
10827;SDS011;5467;59.334;13.512;2022-09-09T04:40:55;0.40;;;0.40;;
10827;SDS011;5467;59.334;13.512;2022-09-09T04:43:24;0.30;;;0.30;;
10827;SDS011;5467;59.334;13.512;2022-09-09T04:45:55;0.40;;;0.40;;
10827;SDS011;5467;59.334;13.512;2022-09-09T04:48:23;0.30;;;0.30;;
10827;SDS011;5467;59.334;13.512;2022-09-09T04:50:54;0.40;;;0.40;;
10827;SDS011;5467;59.334;13.512;2022-09-09T04:53:22;0.40;;;0.40;;
10827;SDS011;5467;59.334;13.512;2022-09-09T04:55:50;0.37;;;0.37;;
10827;SDS011;5467;59.334;13.512;2022-09-09T04:58:17;0.50;;;0.50;;
10827;SDS011;5467;59.334;13.512;2022-09-09T05:00:48;0.40;;;0.40;;
10827;SDS011;5467;59.334;13.512;2022-09-09T05:03:15;0.40;;;0.40;;
10827;SDS011;5467;59.334;13.512;2022-09-09T05:05:42;0.50;;;0.50;;
10827;SDS011;5467;59.334;13.512;2022-09-09T05:08:09;0.40;;;0.40;;
10827;SDS011;5467;59.334;13.512;2022-09-09T05:10:37;0.30;;;0.30;;
10827;SDS011;5467;59.334;13.512;2022-09-09T05:13:06;0.40;;;0.40;;
10827;SDS011;5467;59.334;13.512;2022-09-09T05:15:33;0.50;;;0.50;;
10827;SDS011;5467;59.334;13.512;2022-09-09T05:18:02;0.40;;;0.40;;
10827;SDS011;5467;59.334;13.512;2022-09-09T05:20:29;0.60;;;0.60;;
10827;SDS011;5467;59.334;13.512;2022-09-09T05:22:57;0.40;;;0.40;;
10827;SDS011;5467;59.334;13.512;2022-09-09T05:25:24;0.50;;;0.50;;
10827;SDS011;5467;59.334;13.512;2022-09-09T05:27:51;0.40;;;0.40;;
10827;SDS011;5467;59.334;13.512;2022-09-09T05:30:19;0.50;;;0.50;;
10827;SDS011;5467;59.334;13.512;2022-09-09T05:32:47;0.50;;;0.50;;
10827;SDS011;5467;59.334;13.512;2022-09-09T05:35:15;0.40;;;0.40;;
10827;SDS011;5467;59.334;13.512;2022-09-09T05:37:44;0.40;;;0.40;;
10827;SDS011;5467;59.334;13.512;2022-09-09T05:40:11;0.40;;;0.40;;
10827;SDS011;5467;59.334;13.512;2022-09-09T05:42:38;0.40;;;0.40;;
10827;SDS011;5467;59.334;13.512;2022-09-09T05:45:05;0.50;;;0.50;;
10827;SDS011;5467;59.334;13.512;2022-09-09T05:47:33;0.40;;;0.40;;
10827;SDS011;5467;59.334;13.512;2022-09-09T05:50:02;0.50;;;0.50;;
10827;SDS011;5467;59.334;13.512;2022-09-09T05:52:31;0.50;;;0.50;;
10827;SDS011;5467;59.334;13.512;2022-09-09T05:54:58;0.40;;;0.40;;
10827;SDS011;5467;59.334;13.512;2022-09-09T05:57:25;0.50;;;0.50;;
10827;SDS011;5467;59.334;13.512;2022-09-09T05:59:51;0.40;;;0.40;;
10827;SDS011;5467;59.334;13.512;2022-09-09T06:02:19;0.50;;;0.50;;
10827;SDS011;5467;59.334;13.512;2022-09-09T06:04:46;0.40;;;0.40;;
10827;SDS011;5467;59.334;13.512;2022-09-09T06:07:13;0.50;;;0.50;;
10827;SDS011;5467;59.334;13.512;2022-09-09T06:09:42;0.40;;;0.40;;
10827;SDS011;5467;59.334;13.512;2022-09-09T06:12:09;0.50;;;0.50;;
10827;SDS011;5467;59.334;13.512;2022-09-09T06:14:36;0.40;;;0.40;;
10827;SDS011;5467;59.334;13.512;2022-09-09T06:17:03;0.60;;;0.60;;
10827;SDS011;5467;59.334;13.512;2022-09-09T06:19:30;0.57;;;0.57;;
10827;SDS011;5467;59.334;13.512;2022-09-09T06:21:57;0.40;;;0.40;;
10827;SDS011;5467;59.334;13.512;2022-09-09T06:24:24;0.50;;;0.50;;
10827;SDS011;5467;59.334;13.512;2022-09-09T06:26:52;0.53;;;0.53;;
10827;SDS011;5467;59.334;13.512;2022-09-09T06:29:20;0.50;;;0.50;;
10827;SDS011;5467;59.334;13.512;2022-09-09T06:31:46;0.50;;;0.50;;
10827;SDS011;5467;59.334;13.512;2022-09-09T06:34:13;0.50;;;0.50;;
10827;SDS011;5467;59.334;13.512;2022-09-09T06:36:40;0.50;;;0.50;;
10827;SDS011;5467;59.334;13.512;2022-09-09T06:39:07;0.70;;;0.70;;
10827;SDS011;5467;59.334;13.512;2022-09-09T06:41:36;0.50;;;0.50;;
10827;SDS011;5467;59.334;13.512;2022-09-09T06:44:05;0.40;;;0.40;;
10827;SDS011;5467;59.334;13.512;2022-09-09T06:46:32;0.50;;;0.50;;
10827;SDS011;5467;59.334;13.512;2022-09-09T06:49:00;0.53;;;0.53;;
10827;SDS011;5467;59.334;13.512;2022-09-09T06:51:28;0.50;;;0.50;;
10827;SDS011;5467;59.334;13.512;2022-09-09T06:53:57;0.70;;;0.70;;
10827;SDS011;5467;59.334;13.512;2022-09-09T06:56:26;0.40;;;0.40;;
10827;SDS011;5467;59.334;13.512;2022-09-09T06:58:54;0.50;;;0.50;;
10827;SDS011;5467;59.334;13.512;2022-09-09T07:01:25;0.50;;;0.50;;
10827;SDS011;5467;59.334;13.512;2022-09-09T07:03:54;0.50;;;0.50;;
10827;SDS011;5467;59.334;13.512;2022-09-09T07:06:24;0.50;;;0.50;;
10827;SDS011;5467;59.334;13.512;2022-09-09T07:08:53;0.50;;;0.50;;
10827;SDS011;5467;59.334;13.512;2022-09-09T07:11:21;0.50;;;0.50;;
10827;SDS011;5467;59.334;13.512;2022-09-09T07:13:48;0.60;;;0.60;;
10827;SDS011;5467;59.334;13.512;2022-09-09T07:16:16;0.50;;;0.50;;
10827;SDS011;5467;59.334;13.512;2022-09-09T07:18:46;0.60;;;0.60;;
10827;SDS011;5467;59.334;13.512;2022-09-09T07:21:15;0.50;;;0.50;;
10827;SDS011;5467;59.334;13.512;2022-09-09T07:23:43;0.50;;;0.50;;
10827;SDS011;5467;59.334;13.512;2022-09-09T07:26:12;0.50;;;0.50;;
10827;SDS011;5467;59.334;13.512;2022-09-09T07:28:40;0.50;;;0.50;;
10827;SDS011;5467;59.334;13.512;2022-09-09T07:31:12;0.50;;;0.50;;
10827;SDS011;5467;59.334;13.512;2022-09-09T07:33:42;0.60;;;0.60;;
10827;SDS011;5467;59.334;13.512;2022-09-09T07:36:12;0.50;;;0.50;;
10827;SDS011;5467;59.334;13.512;2022-09-09T07:38:40;0.67;;;0.67;;
10827;SDS011;5467;59.334;13.512;2022-09-09T07:41:09;0.70;;;0.70;;
10827;SDS011;5467;59.334;13.512;2022-09-09T07:43:37;0.67;;;0.67;;
10827;SDS011;5467;59.334;13.512;2022-09-09T07:46:05;0.60;;;0.60;;
10827;SDS011;5467;59.334;13.512;2022-09-09T07:48:32;0.60;;;0.60;;
10827;SDS011;5467;59.334;13.512;2022-09-09T07:51:04;0.53;;;0.53;;
10827;SDS011;5467;59.334;13.512;2022-09-09T07:53:38;0.60;;;0.60;;
10827;SDS011;5467;59.334;13.512;2022-09-09T07:56:05;0.60;;;0.60;;
10827;SDS011;5467;59.334;13.512;2022-09-09T07:58:34;0.70;;;0.70;;
10827;SDS011;5467;59.334;13.512;2022-09-09T08:01:05;0.50;;;0.50;;
10827;SDS011;5467;59.334;13.512;2022-09-09T08:03:34;0.70;;;0.70;;
10827;SDS011;5467;59.334;13.512;2022-09-09T08:06:01;0.60;;;0.60;;
10827;SDS011;5467;59.334;13.512;2022-09-09T08:08:29;0.50;;;0.50;;
10827;SDS011;5467;59.334;13.512;2022-09-09T08:11:02;0.60;;;0.60;;
10827;SDS011;5467;59.334;13.512;2022-09-09T08:13:32;0.53;;;0.53;;
10827;SDS011;5467;59.334;13.512;2022-09-09T08:16:06;0.63;;;0.63;;
10827;SDS011;5467;59.334;13.512;2022-09-09T08:18:34;0.60;;;0.60;;
10827;SDS011;5467;59.334;13.512;2022-09-09T08:21:06;0.50;;;0.50;;
10827;SDS011;5467;59.334;13.512;2022-09-09T08:23:36;0.70;;;0.70;;
10827;SDS011;5467;59.334;13.512;2022-09-09T08:26:09;0.50;;;0.50;;
10827;SDS011;5467;59.334;13.512;2022-09-09T08:28:37;0.60;;;0.60;;
10827;SDS011;5467;59.334;13.512;2022-09-09T08:31:05;0.77;;;0.70;;
10827;SDS011;5467;59.334;13.512;2022-09-09T08:33:36;0.60;;;0.60;;
10827;SDS011;5467;59.334;13.512;2022-09-09T08:36:04;0.50;;;0.50;;
10827;SDS011;5467;59.334;13.512;2022-09-09T08:38:34;0.70;;;0.70;;
10827;SDS011;5467;59.334;13.512;2022-09-09T08:44:04;0.60;;;0.60;;
10827;SDS011;5467;59.334;13.512;2022-09-09T08:46:36;0.60;;;0.60;;
10827;SDS011;5467;59.334;13.512;2022-09-09T08:49:14;0.70;;;0.70;;
10827;SDS011;5467;59.334;13.512;2022-09-09T08:51:50;0.60;;;0.60;;
10827;SDS011;5467;59.334;13.512;2022-09-09T08:54:21;0.60;;;0.60;;
10827;SDS011;5467;59.334;13.512;2022-09-09T08:56:49;0.50;;;0.50;;
10827;SDS011;5467;59.334;13.512;2022-09-09T08:59:17;0.70;;;0.70;;
10827;SDS011;5467;59.334;13.512;2022-09-09T09:01:51;0.70;;;0.70;;
10827;SDS011;5467;59.334;13.512;2022-09-09T09:04:42;0.80;;;0.80;;
10827;SDS011;5467;59.334;13.512;2022-09-09T09:07:22;0.70;;;0.70;;
10827;SDS011;5467;59.334;13.512;2022-09-09T09:10:00;0.70;;;0.70;;
10827;SDS011;5467;59.334;13.512;2022-09-09T09:12:32;0.70;;;0.70;;
10827;SDS011;5467;59.334;13.512;2022-09-09T09:15:05;0.60;;;0.60;;
10827;SDS011;5467;59.334;13.512;2022-09-09T09:17:42;0.70;;;0.70;;
10827;SDS011;5467;59.334;13.512;2022-09-09T09:20:11;0.77;;;0.77;;
10827;SDS011;5467;59.334;13.512;2022-09-09T09:22:43;0.80;;;0.80;;
10827;SDS011;5467;59.334;13.512;2022-09-09T09:25:16;0.70;;;0.70;;
10827;SDS011;5467;59.334;13.512;2022-09-09T09:27:49;0.60;;;0.60;;
10827;SDS011;5467;59.334;13.512;2022-09-09T09:30:31;0.80;;;0.80;;
10827;SDS011;5467;59.334;13.512;2022-09-09T09:33:05;0.70;;;0.70;;
10827;SDS011;5467;59.334;13.512;2022-09-09T09:35:38;0.77;;;0.77;;
10827;SDS011;5467;59.334;13.512;2022-09-09T09:38:08;0.90;;;0.90;;
10827;SDS011;5467;59.334;13.512;2022-09-09T09:40:47;0.80;;;0.80;;
10827;SDS011;5467;59.334;13.512;2022-09-09T09:43:20;0.90;;;0.90;;
10827;SDS011;5467;59.334;13.512;2022-09-09T09:45:49;0.80;;;0.80;;
10827;SDS011;5467;59.334;13.512;2022-09-09T09:48:16;1.30;;;1.20;;
10827;SDS011;5467;59.334;13.512;2022-09-09T09:50:46;0.93;;;0.90;;
10827;SDS011;5467;59.334;13.512;2022-09-09T09:53:20;0.80;;;0.80;;
10827;SDS011;5467;59.334;13.512;2022-09-09T09:55:51;0.60;;;0.60;;
10827;SDS011;5467;59.334;13.512;2022-09-09T09:58:23;0.73;;;0.73;;
10827;SDS011;5467;59.334;13.512;2022-09-09T10:00:53;0.70;;;0.70;;
10827;SDS011;5467;59.334;13.512;2022-09-09T10:03:24;0.70;;;0.70;;
10827;SDS011;5467;59.334;13.512;2022-09-09T10:05:53;0.60;;;0.60;;
10827;SDS011;5467;59.334;13.512;2022-09-09T10:08:21;0.70;;;0.70;;
10827;SDS011;5467;59.334;13.512;2022-09-09T10:13:55;4.50;;;0.90;;
10827;SDS011;5467;59.334;13.512;2022-09-09T10:16:36;0.70;;;0.70;;
10827;SDS011;5467;59.334;13.512;2022-09-09T10:19:18;0.67;;;0.67;;
10827;SDS011;5467;59.334;13.512;2022-09-09T10:21:59;0.83;;;0.83;;
10827;SDS011;5467;59.334;13.512;2022-09-09T10:25:03;0.70;;;0.70;;
10827;SDS011;5467;59.334;13.512;2022-09-09T10:28:07;0.70;;;0.70;;
10827;SDS011;5467;59.334;13.512;2022-09-09T10:30:50;0.80;;;0.80;;
10827;SDS011;5467;59.334;13.512;2022-09-09T10:33:30;0.70;;;0.70;;
10827;SDS011;5467;59.334;13.512;2022-09-09T10:36:06;0.80;;;0.80;;
10827;SDS011;5467;59.334;13.512;2022-09-09T10:38:39;0.83;;;0.83;;
10827;SDS011;5467;59.334;13.512;2022-09-09T10:41:23;0.80;;;0.80;;
10827;SDS011;5467;59.334;13.512;2022-09-09T10:44:06;0.60;;;0.60;;
10827;SDS011;5467;59.334;13.512;2022-09-09T10:46:48;0.70;;;0.70;;
10827;SDS011;5467;59.334;13.512;2022-09-09T10:49:30;0.70;;;0.70;;
10827;SDS011;5467;59.334;13.512;2022-09-09T10:52:10;0.90;;;0.90;;
10827;SDS011;5467;59.334;13.512;2022-09-09T10:54:50;1.63;;;0.80;;
10827;SDS011;5467;59.334;13.512;2022-09-09T10:57:25;0.80;;;0.80;;
10827;SDS011;5467;59.334;13.512;2022-09-09T10:59:57;1.20;;;0.80;;
10827;SDS011;5467;59.334;13.512;2022-09-09T11:02:31;0.70;;;0.70;;
10827;SDS011;5467;59.334;13.512;2022-09-09T11:05:00;0.70;;;0.70;;
10827;SDS011;5467;59.334;13.512;2022-09-09T11:07:32;0.70;;;0.70;;
10827;SDS011;5467;59.334;13.512;2022-09-09T11:10:05;0.70;;;0.70;;
10827;SDS011;5467;59.334;13.512;2022-09-09T11:12:38;0.70;;;0.70;;
10827;SDS011;5467;59.334;13.512;2022-09-09T11:15:13;0.60;;;0.60;;
10827;SDS011;5467;59.334;13.512;2022-09-09T11:17:46;0.70;;;0.70;;
10827;SDS011;5467;59.334;13.512;2022-09-09T11:20:16;0.67;;;0.67;;
10827;SDS011;5467;59.334;13.512;2022-09-09T11:22:44;0.70;;;0.70;;
10827;SDS011;5467;59.334;13.512;2022-09-09T11:25:16;0.70;;;0.70;;
10827;SDS011;5467;59.334;13.512;2022-09-09T11:27:53;0.80;;;0.80;;
10827;SDS011;5467;59.334;13.512;2022-09-09T11:30:32;0.70;;;0.70;;
10827;SDS011;5467;59.334;13.512;2022-09-09T11:33:22;0.70;;;0.70;;
10827;SDS011;5467;59.334;13.512;2022-09-09T11:36:19;0.67;;;0.67;;
10827;SDS011;5467;59.334;13.512;2022-09-09T11:39:00;0.60;;;0.60;;
10827;SDS011;5467;59.334;13.512;2022-09-09T11:42:04;0.60;;;0.60;;
10827;SDS011;5467;59.334;13.512;2022-09-09T11:44:33;0.70;;;0.70;;
10827;SDS011;5467;59.334;13.512;2022-09-09T11:47:00;0.70;;;0.70;;
10827;SDS011;5467;59.334;13.512;2022-09-09T11:49:29;0.60;;;0.60;;
10827;SDS011;5467;59.334;13.512;2022-09-09T11:52:10;0.67;;;0.67;;
10827;SDS011;5467;59.334;13.512;2022-09-09T11:54:44;0.67;;;0.67;;
10827;SDS011;5467;59.334;13.512;2022-09-09T11:57:17;1.00;;;1.00;;
10827;SDS011;5467;59.334;13.512;2022-09-09T11:59:53;0.70;;;0.70;;
10827;SDS011;5467;59.334;13.512;2022-09-09T12:02:22;0.70;;;0.70;;
10827;SDS011;5467;59.334;13.512;2022-09-09T12:04:56;1.20;;;0.90;;
10827;SDS011;5467;59.334;13.512;2022-09-09T12:07:34;0.70;;;0.70;;
10827;SDS011;5467;59.334;13.512;2022-09-09T12:10:05;0.63;;;0.63;;
10827;SDS011;5467;59.334;13.512;2022-09-09T12:12:49;0.70;;;0.70;;
10827;SDS011;5467;59.334;13.512;2022-09-09T12:15:18;0.67;;;0.67;;
10827;SDS011;5467;59.334;13.512;2022-09-09T12:17:48;0.70;;;0.70;;
10827;SDS011;5467;59.334;13.512;2022-09-09T12:20:19;0.60;;;0.60;;
10827;SDS011;5467;59.334;13.512;2022-09-09T12:23:00;0.60;;;0.60;;
10827;SDS011;5467;59.334;13.512;2022-09-09T12:25:41;0.70;;;0.70;;
10827;SDS011;5467;59.334;13.512;2022-09-09T12:28:39;0.60;;;0.60;;
10827;SDS011;5467;59.334;13.512;2022-09-09T12:31:12;0.80;;;0.80;;
10827;SDS011;5467;59.334;13.512;2022-09-09T12:33:44;0.70;;;0.70;;
10827;SDS011;5467;59.334;13.512;2022-09-09T12:36:15;0.60;;;0.60;;
10827;SDS011;5467;59.334;13.512;2022-09-09T12:38:44;0.70;;;0.70;;
10827;SDS011;5467;59.334;13.512;2022-09-09T12:41:19;0.70;;;0.70;;
10827;SDS011;5467;59.334;13.512;2022-09-09T12:43:47;0.70;;;0.70;;
10827;SDS011;5467;59.334;13.512;2022-09-09T12:46:18;0.60;;;0.60;;
10827;SDS011;5467;59.334;13.512;2022-09-09T12:48:52;0.73;;;0.70;;
10827;SDS011;5467;59.334;13.512;2022-09-09T12:51:23;0.70;;;0.70;;
10827;SDS011;5467;59.334;13.512;2022-09-09T12:53:54;0.70;;;0.70;;
10827;SDS011;5467;59.334;13.512;2022-09-09T12:56:23;1.63;;;0.73;;
10827;SDS011;5467;59.334;13.512;2022-09-09T12:58:53;0.70;;;0.70;;
10827;SDS011;5467;59.334;13.512;2022-09-09T13:01:24;0.70;;;0.70;;
10827;SDS011;5467;59.334;13.512;2022-09-09T13:03:53;0.80;;;0.80;;
10827;SDS011;5467;59.334;13.512;2022-09-09T13:06:23;0.60;;;0.60;;
10827;SDS011;5467;59.334;13.512;2022-09-09T13:08:52;0.70;;;0.70;;
10827;SDS011;5467;59.334;13.512;2022-09-09T13:11:20;0.60;;;0.60;;
10827;SDS011;5467;59.334;13.512;2022-09-09T13:13:51;0.70;;;0.70;;
10827;SDS011;5467;59.334;13.512;2022-09-09T13:16:21;0.80;;;0.80;;
10827;SDS011;5467;59.334;13.512;2022-09-09T13:18:51;0.60;;;0.60;;
10827;SDS011;5467;59.334;13.512;2022-09-09T13:21:31;0.70;;;0.70;;
10827;SDS011;5467;59.334;13.512;2022-09-09T13:23:59;0.70;;;0.70;;
10827;SDS011;5467;59.334;13.512;2022-09-09T13:26:28;0.80;;;0.80;;
10827;SDS011;5467;59.334;13.512;2022-09-09T13:29:07;0.70;;;0.70;;
10827;SDS011;5467;59.334;13.512;2022-09-09T13:31:41;0.60;;;0.60;;
10827;SDS011;5467;59.334;13.512;2022-09-09T13:34:12;0.60;;;0.60;;
10827;SDS011;5467;59.334;13.512;2022-09-09T13:36:41;1.40;;;0.73;;
10827;SDS011;5467;59.334;13.512;2022-09-09T13:39:15;0.60;;;0.60;;
10827;SDS011;5467;59.334;13.512;2022-09-09T13:41:44;0.70;;;0.70;;
10827;SDS011;5467;59.334;13.512;2022-09-09T13:44:17;0.70;;;0.70;;
10827;SDS011;5467;59.334;13.512;2022-09-09T13:46:58;0.87;;;0.70;;
10827;SDS011;5467;59.334;13.512;2022-09-09T13:49:28;0.60;;;0.60;;
10827;SDS011;5467;59.334;13.512;2022-09-09T13:52:08;0.70;;;0.70;;
10827;SDS011;5467;59.334;13.512;2022-09-09T13:54:36;0.60;;;0.60;;
10827;SDS011;5467;59.334;13.512;2022-09-09T13:57:03;0.60;;;0.60;;
10827;SDS011;5467;59.334;13.512;2022-09-09T13:59:30;0.60;;;0.60;;
10827;SDS011;5467;59.334;13.512;2022-09-09T14:01:57;0.70;;;0.70;;
10827;SDS011;5467;59.334;13.512;2022-09-09T14:04:26;0.60;;;0.60;;
10827;SDS011;5467;59.334;13.512;2022-09-09T14:06:54;0.60;;;0.60;;
10827;SDS011;5467;59.334;13.512;2022-09-09T14:09:23;0.60;;;0.60;;
10827;SDS011;5467;59.334;13.512;2022-09-09T14:11:50;0.70;;;0.70;;
10827;SDS011;5467;59.334;13.512;2022-09-09T14:14:17;0.60;;;0.60;;
10827;SDS011;5467;59.334;13.512;2022-09-09T14:16:44;0.60;;;0.60;;
10827;SDS011;5467;59.334;13.512;2022-09-09T14:19:11;0.50;;;0.50;;
10827;SDS011;5467;59.334;13.512;2022-09-09T14:21:38;0.60;;;0.60;;
10827;SDS011;5467;59.334;13.512;2022-09-09T14:24:05;0.53;;;0.53;;
10827;SDS011;5467;59.334;13.512;2022-09-09T14:26:33;0.60;;;0.60;;
10827;SDS011;5467;59.334;13.512;2022-09-09T14:29:00;0.60;;;0.60;;
10827;SDS011;5467;59.334;13.512;2022-09-09T14:31:27;0.50;;;0.50;;
10827;SDS011;5467;59.334;13.512;2022-09-09T14:33:54;2.63;;;0.73;;
10827;SDS011;5467;59.334;13.512;2022-09-09T14:36:21;0.50;;;0.50;;
10827;SDS011;5467;59.334;13.512;2022-09-09T14:38:49;0.57;;;0.57;;
10827;SDS011;5467;59.334;13.512;2022-09-09T14:41:17;0.60;;;0.60;;
10827;SDS011;5467;59.334;13.512;2022-09-09T14:43:49;0.50;;;0.50;;
10827;SDS011;5467;59.334;13.512;2022-09-09T14:46:17;0.60;;;0.60;;
10827;SDS011;5467;59.334;13.512;2022-09-09T14:48:45;0.60;;;0.60;;
10827;SDS011;5467;59.334;13.512;2022-09-09T14:51:14;0.60;;;0.60;;
10827;SDS011;5467;59.334;13.512;2022-09-09T14:53:43;0.60;;;0.60;;
10827;SDS011;5467;59.334;13.512;2022-09-09T14:56:11;0.80;;;0.70;;
10827;SDS011;5467;59.334;13.512;2022-09-09T14:58:39;0.67;;;0.67;;
10827;SDS011;5467;59.334;13.512;2022-09-09T15:01:08;0.43;;;0.43;;
10827;SDS011;5467;59.334;13.512;2022-09-09T15:03:36;0.60;;;0.60;;
10827;SDS011;5467;59.334;13.512;2022-09-09T15:06:07;0.50;;;0.50;;
10827;SDS011;5467;59.334;13.512;2022-09-09T15:08:35;0.67;;;0.67;;
10827;SDS011;5467;59.334;13.512;2022-09-09T15:11:02;0.60;;;0.60;;
10827;SDS011;5467;59.334;13.512;2022-09-09T15:13:30;0.50;;;0.50;;
10827;SDS011;5467;59.334;13.512;2022-09-09T15:16:02;0.50;;;0.50;;
10827;SDS011;5467;59.334;13.512;2022-09-09T15:18:32;0.60;;;0.60;;
10827;SDS011;5467;59.334;13.512;2022-09-09T15:21:01;0.50;;;0.50;;
10827;SDS011;5467;59.334;13.512;2022-09-09T15:23:30;0.50;;;0.50;;